sensor_id;sensor_type;location;lat;lon;timestamp;P1;durP1;ratioP1;P2;durP2;ratioP2
6205;SDS011;3136;48.788;9.772;2023-03-21T00:01:17;3.83;;;2.87;;
6205;SDS011;3136;48.788;9.772;2023-03-21T00:03:42;4.53;;;2.73;;
6205;SDS011;3136;48.788;9.772;2023-03-21T00:06:11;6.07;;;3.10;;
6205;SDS011;3136;48.788;9.772;2023-03-21T00:08:37;8.63;;;3.37;;
6205;SDS011;3136;48.788;9.772;2023-03-21T00:11:07;4.50;;;2.83;;
6205;SDS011;3136;48.788;9.772;2023-03-21T00:13:34;6.07;;;2.70;;
6205;SDS011;3136;48.788;9.772;2023-03-21T00:16:12;3.73;;;2.60;;
6205;SDS011;3136;48.788;9.772;2023-03-21T00:18:44;7.83;;;3.00;;
6205;SDS011;3136;48.788;9.772;2023-03-21T00:21:16;5.10;;;2.80;;
6205;SDS011;3136;48.788;9.772;2023-03-21T00:23:44;4.63;;;2.73;;
6205;SDS011;3136;48.788;9.772;2023-03-21T00:26:13;3.80;;;2.70;;
6205;SDS011;3136;48.788;9.772;2023-03-21T00:28:40;3.37;;;2.23;;
6205;SDS011;3136;48.788;9.772;2023-03-21T00:31:07;3.97;;;2.30;;
6205;SDS011;3136;48.788;9.772;2023-03-21T00:33:33;4.57;;;2.40;;
6205;SDS011;3136;48.788;9.772;2023-03-21T00:36:00;3.67;;;2.60;;
6205;SDS011;3136;48.788;9.772;2023-03-21T00:38:26;4.33;;;2.07;;
6205;SDS011;3136;48.788;9.772;2023-03-21T00:40:52;3.43;;;2.30;;
6205;SDS011;3136;48.788;9.772;2023-03-21T00:43:18;3.10;;;2.40;;
6205;SDS011;3136;48.788;9.772;2023-03-21T00:45:47;3.67;;;2.43;;
6205;SDS011;3136;48.788;9.772;2023-03-21T00:48:14;4.30;;;2.70;;
6205;SDS011;3136;48.788;9.772;2023-03-21T00:50:44;3.13;;;2.53;;
6205;SDS011;3136;48.788;9.772;2023-03-21T00:53:11;3.30;;;2.50;;
6205;SDS011;3136;48.788;9.772;2023-03-21T00:55:37;3.30;;;2.33;;
6205;SDS011;3136;48.788;9.772;2023-03-21T00:58:03;4.37;;;2.40;;
6205;SDS011;3136;48.788;9.772;2023-03-21T01:00:29;6.83;;;2.50;;
6205;SDS011;3136;48.788;9.772;2023-03-21T01:02:57;5.30;;;2.50;;
6205;SDS011;3136;48.788;9.772;2023-03-21T01:05:23;3.03;;;2.43;;
6205;SDS011;3136;48.788;9.772;2023-03-21T01:08:13;3.20;;;2.40;;
6205;SDS011;3136;48.788;9.772;2023-03-21T01:10:40;5.53;;;2.57;;
6205;SDS011;3136;48.788;9.772;2023-03-21T01:13:07;2.70;;;2.50;;
6205;SDS011;3136;48.788;9.772;2023-03-21T01:15:34;3.47;;;2.33;;
6205;SDS011;3136;48.788;9.772;2023-03-21T01:18:01;3.70;;;2.30;;
6205;SDS011;3136;48.788;9.772;2023-03-21T01:20:26;6.23;;;2.60;;
6205;SDS011;3136;48.788;9.772;2023-03-21T01:22:53;4.60;;;2.20;;
6205;SDS011;3136;48.788;9.772;2023-03-21T01:25:19;5.47;;;2.70;;
6205;SDS011;3136;48.788;9.772;2023-03-21T01:27:45;5.47;;;2.90;;
6205;SDS011;3136;48.788;9.772;2023-03-21T01:30:11;4.00;;;2.87;;
6205;SDS011;3136;48.788;9.772;2023-03-21T01:32:36;4.23;;;2.80;;
6205;SDS011;3136;48.788;9.772;2023-03-21T01:35:02;4.27;;;2.63;;
6205;SDS011;3136;48.788;9.772;2023-03-21T01:37:28;4.37;;;2.70;;
6205;SDS011;3136;48.788;9.772;2023-03-21T01:39:54;5.37;;;2.77;;
6205;SDS011;3136;48.788;9.772;2023-03-21T01:42:20;4.77;;;2.70;;
6205;SDS011;3136;48.788;9.772;2023-03-21T01:47:18;4.80;;;2.73;;
6205;SDS011;3136;48.788;9.772;2023-03-21T01:49:44;5.17;;;2.70;;
6205;SDS011;3136;48.788;9.772;2023-03-21T01:52:14;4.50;;;2.87;;
6205;SDS011;3136;48.788;9.772;2023-03-21T01:54:43;4.67;;;2.73;;
6205;SDS011;3136;48.788;9.772;2023-03-21T01:57:13;8.40;;;2.70;;
6205;SDS011;3136;48.788;9.772;2023-03-21T01:59:44;6.37;;;2.83;;
6205;SDS011;3136;48.788;9.772;2023-03-21T02:02:15;3.40;;;2.40;;
6205;SDS011;3136;48.788;9.772;2023-03-21T02:04:44;3.40;;;2.90;;
6205;SDS011;3136;48.788;9.772;2023-03-21T02:07:15;3.63;;;2.50;;
6205;SDS011;3136;48.788;9.772;2023-03-21T02:09:48;3.50;;;2.60;;
6205;SDS011;3136;48.788;9.772;2023-03-21T02:12:14;5.73;;;2.83;;
6205;SDS011;3136;48.788;9.772;2023-03-21T02:14:42;3.13;;;2.50;;
6205;SDS011;3136;48.788;9.772;2023-03-21T02:28:39;6.20;;;2.63;;
6205;SDS011;3136;48.788;9.772;2023-03-21T02:31:17;5.33;;;3.00;;
6205;SDS011;3136;48.788;9.772;2023-03-21T02:39:28;2.93;;;2.40;;
6205;SDS011;3136;48.788;9.772;2023-03-21T02:44:48;4.60;;;2.63;;
6205;SDS011;3136;48.788;9.772;2023-03-21T02:50:11;5.50;;;2.80;;
6205;SDS011;3136;48.788;9.772;2023-03-21T02:52:42;3.83;;;3.03;;
6205;SDS011;3136;48.788;9.772;2023-03-21T02:55:15;3.80;;;2.77;;
6205;SDS011;3136;48.788;9.772;2023-03-21T02:57:47;5.17;;;3.00;;
6205;SDS011;3136;48.788;9.772;2023-03-21T03:00:16;5.07;;;2.97;;
6205;SDS011;3136;48.788;9.772;2023-03-21T03:02:44;4.67;;;3.00;;
6205;SDS011;3136;48.788;9.772;2023-03-21T03:05:14;3.53;;;2.67;;
6205;SDS011;3136;48.788;9.772;2023-03-21T03:13:05;3.73;;;2.90;;
6205;SDS011;3136;48.788;9.772;2023-03-21T03:16:05;2.87;;;2.60;;
6205;SDS011;3136;48.788;9.772;2023-03-21T03:18:51;5.90;;;3.00;;
6205;SDS011;3136;48.788;9.772;2023-03-21T03:21:21;3.03;;;2.53;;
6205;SDS011;3136;48.788;9.772;2023-03-21T03:23:57;3.77;;;3.00;;
6205;SDS011;3136;48.788;9.772;2023-03-21T03:26:31;3.70;;;2.50;;
6205;SDS011;3136;48.788;9.772;2023-03-21T03:29:02;4.30;;;2.83;;
6205;SDS011;3136;48.788;9.772;2023-03-21T03:31:35;3.63;;;2.80;;
6205;SDS011;3136;48.788;9.772;2023-03-21T03:34:07;4.20;;;2.70;;
6205;SDS011;3136;48.788;9.772;2023-03-21T03:36:37;7.93;;;2.87;;
6205;SDS011;3136;48.788;9.772;2023-03-21T03:39:06;5.90;;;3.30;;
6205;SDS011;3136;48.788;9.772;2023-03-21T03:44:21;4.10;;;3.10;;
6205;SDS011;3136;48.788;9.772;2023-03-21T03:46:50;3.97;;;2.97;;
6205;SDS011;3136;48.788;9.772;2023-03-21T03:49:22;4.20;;;2.57;;
6205;SDS011;3136;48.788;9.772;2023-03-21T03:54:29;3.77;;;2.60;;
6205;SDS011;3136;48.788;9.772;2023-03-21T03:56:58;2.80;;;2.50;;
6205;SDS011;3136;48.788;9.772;2023-03-21T03:59:25;6.33;;;2.70;;
6205;SDS011;3136;48.788;9.772;2023-03-21T04:01:51;5.67;;;2.90;;
6205;SDS011;3136;48.788;9.772;2023-03-21T04:04:16;3.10;;;2.80;;
6205;SDS011;3136;48.788;9.772;2023-03-21T04:06:42;3.47;;;2.70;;
6205;SDS011;3136;48.788;9.772;2023-03-21T04:09:15;3.20;;;2.60;;
6205;SDS011;3136;48.788;9.772;2023-03-21T04:11:43;5.37;;;2.70;;
6205;SDS011;3136;48.788;9.772;2023-03-21T04:14:09;3.20;;;2.80;;
6205;SDS011;3136;48.788;9.772;2023-03-21T04:16:35;4.70;;;2.70;;
6205;SDS011;3136;48.788;9.772;2023-03-21T04:19:00;3.63;;;2.70;;
6205;SDS011;3136;48.788;9.772;2023-03-21T04:21:26;6.43;;;2.93;;
6205;SDS011;3136;48.788;9.772;2023-03-21T04:23:53;4.60;;;2.90;;
6205;SDS011;3136;48.788;9.772;2023-03-21T04:26:19;4.57;;;2.97;;
6205;SDS011;3136;48.788;9.772;2023-03-21T04:28:46;4.33;;;3.07;;
6205;SDS011;3136;48.788;9.772;2023-03-21T04:31:12;3.00;;;2.53;;
6205;SDS011;3136;48.788;9.772;2023-03-21T04:33:38;4.37;;;3.47;;
6205;SDS011;3136;48.788;9.772;2023-03-21T04:36:04;4.50;;;3.10;;
6205;SDS011;3136;48.788;9.772;2023-03-21T04:38:33;3.77;;;2.97;;
6205;SDS011;3136;48.788;9.772;2023-03-21T04:41:00;5.90;;;3.03;;
6205;SDS011;3136;48.788;9.772;2023-03-21T04:43:26;4.57;;;2.87;;
6205;SDS011;3136;48.788;9.772;2023-03-21T04:45:53;7.10;;;4.07;;
6205;SDS011;3136;48.788;9.772;2023-03-21T04:48:19;6.40;;;3.00;;
6205;SDS011;3136;48.788;9.772;2023-03-21T04:50:48;5.03;;;3.03;;
6205;SDS011;3136;48.788;9.772;2023-03-21T04:53:15;3.83;;;2.80;;
6205;SDS011;3136;48.788;9.772;2023-03-21T04:55:41;3.47;;;3.13;;
6205;SDS011;3136;48.788;9.772;2023-03-21T04:58:07;5.83;;;3.90;;
6205;SDS011;3136;48.788;9.772;2023-03-21T05:00:33;4.87;;;3.20;;
6205;SDS011;3136;48.788;9.772;2023-03-21T05:03:05;4.80;;;3.20;;
6205;SDS011;3136;48.788;9.772;2023-03-21T05:05:33;7.20;;;3.17;;
6205;SDS011;3136;48.788;9.772;2023-03-21T05:08:00;5.57;;;3.03;;
6205;SDS011;3136;48.788;9.772;2023-03-21T05:10:26;3.83;;;3.03;;
6205;SDS011;3136;48.788;9.772;2023-03-21T05:12:51;3.83;;;2.77;;
6205;SDS011;3136;48.788;9.772;2023-03-21T05:15:17;4.77;;;3.03;;
6205;SDS011;3136;48.788;9.772;2023-03-21T05:17:42;3.00;;;2.63;;
6205;SDS011;3136;48.788;9.772;2023-03-21T05:20:08;5.30;;;3.00;;
6205;SDS011;3136;48.788;9.772;2023-03-21T05:22:35;4.80;;;2.90;;
6205;SDS011;3136;48.788;9.772;2023-03-21T05:25:05;3.90;;;2.80;;
6205;SDS011;3136;48.788;9.772;2023-03-21T05:27:32;7.83;;;3.20;;
6205;SDS011;3136;48.788;9.772;2023-03-21T05:30:03;7.23;;;3.33;;
6205;SDS011;3136;48.788;9.772;2023-03-21T05:32:32;4.77;;;2.97;;
6205;SDS011;3136;48.788;9.772;2023-03-21T05:34:58;5.77;;;2.70;;
6205;SDS011;3136;48.788;9.772;2023-03-21T05:37:24;6.57;;;2.83;;
6205;SDS011;3136;48.788;9.772;2023-03-21T05:39:49;5.87;;;2.80;;
6205;SDS011;3136;48.788;9.772;2023-03-21T05:42:15;4.70;;;2.80;;
6205;SDS011;3136;48.788;9.772;2023-03-21T05:44:42;4.47;;;3.23;;
6205;SDS011;3136;48.788;9.772;2023-03-21T05:47:09;4.73;;;3.40;;
6205;SDS011;3136;48.788;9.772;2023-03-21T05:49:35;4.23;;;3.50;;
6205;SDS011;3136;48.788;9.772;2023-03-21T05:52:01;5.83;;;3.60;;
6205;SDS011;3136;48.788;9.772;2023-03-21T05:54:26;5.33;;;3.60;;
6205;SDS011;3136;48.788;9.772;2023-03-21T05:56:52;3.73;;;3.20;;
6205;SDS011;3136;48.788;9.772;2023-03-21T05:59:17;7.77;;;3.70;;
6205;SDS011;3136;48.788;9.772;2023-03-21T06:01:43;5.73;;;3.33;;
6205;SDS011;3136;48.788;9.772;2023-03-21T06:04:08;4.33;;;3.33;;
6205;SDS011;3136;48.788;9.772;2023-03-21T06:06:34;6.03;;;3.63;;
6205;SDS011;3136;48.788;9.772;2023-03-21T06:09:00;10.00;;;3.63;;
6205;SDS011;3136;48.788;9.772;2023-03-21T06:11:27;4.73;;;3.53;;
6205;SDS011;3136;48.788;9.772;2023-03-21T06:13:54;8.10;;;3.97;;
6205;SDS011;3136;48.788;9.772;2023-03-21T06:16:20;4.43;;;3.43;;
6205;SDS011;3136;48.788;9.772;2023-03-21T06:18:46;7.80;;;3.87;;
6205;SDS011;3136;48.788;9.772;2023-03-21T06:21:11;4.87;;;3.23;;
6205;SDS011;3136;48.788;9.772;2023-03-21T06:23:37;4.57;;;3.43;;
6205;SDS011;3136;48.788;9.772;2023-03-21T06:26:03;7.57;;;3.30;;
6205;SDS011;3136;48.788;9.772;2023-03-21T06:28:29;6.27;;;3.20;;
6205;SDS011;3136;48.788;9.772;2023-03-21T06:30:55;7.50;;;3.60;;
6205;SDS011;3136;48.788;9.772;2023-03-21T06:33:21;8.43;;;3.77;;
6205;SDS011;3136;48.788;9.772;2023-03-21T06:35:50;6.10;;;3.57;;
6205;SDS011;3136;48.788;9.772;2023-03-21T06:38:17;7.10;;;3.60;;
6205;SDS011;3136;48.788;9.772;2023-03-21T06:40:44;5.23;;;3.67;;
6205;SDS011;3136;48.788;9.772;2023-03-21T06:43:11;6.00;;;3.60;;
6205;SDS011;3136;48.788;9.772;2023-03-21T06:45:36;8.30;;;3.73;;
6205;SDS011;3136;48.788;9.772;2023-03-21T06:48:02;7.23;;;3.73;;
6205;SDS011;3136;48.788;9.772;2023-03-21T06:50:28;7.93;;;3.50;;
6205;SDS011;3136;48.788;9.772;2023-03-21T06:52:53;6.93;;;3.63;;
6205;SDS011;3136;48.788;9.772;2023-03-21T06:55:22;5.33;;;3.23;;
6205;SDS011;3136;48.788;9.772;2023-03-21T06:57:51;6.37;;;3.87;;
6205;SDS011;3136;48.788;9.772;2023-03-21T07:00:17;5.60;;;3.73;;
6205;SDS011;3136;48.788;9.772;2023-03-21T07:02:44;7.47;;;3.97;;
6205;SDS011;3136;48.788;9.772;2023-03-21T07:05:10;5.37;;;3.53;;
6205;SDS011;3136;48.788;9.772;2023-03-21T07:07:36;5.37;;;4.07;;
6205;SDS011;3136;48.788;9.772;2023-03-21T07:10:02;19.80;;;11.20;;
6205;SDS011;3136;48.788;9.772;2023-03-21T07:12:28;11.90;;;7.53;;
6205;SDS011;3136;48.788;9.772;2023-03-21T07:14:53;16.40;;;9.20;;
6205;SDS011;3136;48.788;9.772;2023-03-21T07:17:19;12.53;;;6.57;;
6205;SDS011;3136;48.788;9.772;2023-03-21T07:19:45;8.10;;;5.70;;
6205;SDS011;3136;48.788;9.772;2023-03-21T07:22:10;9.67;;;5.60;;
6205;SDS011;3136;48.788;9.772;2023-03-21T07:24:36;9.90;;;5.50;;
6205;SDS011;3136;48.788;9.772;2023-03-21T07:27:01;13.97;;;6.50;;
6205;SDS011;3136;48.788;9.772;2023-03-21T07:29:27;6.47;;;4.60;;
6205;SDS011;3136;48.788;9.772;2023-03-21T07:31:52;7.67;;;4.83;;
6205;SDS011;3136;48.788;9.772;2023-03-21T07:34:18;10.03;;;5.10;;
6205;SDS011;3136;48.788;9.772;2023-03-21T07:36:43;6.30;;;4.47;;
6205;SDS011;3136;48.788;9.772;2023-03-21T07:39:09;10.20;;;4.90;;
6205;SDS011;3136;48.788;9.772;2023-03-21T07:41:34;6.17;;;4.73;;
6205;SDS011;3136;48.788;9.772;2023-03-21T07:44:00;6.43;;;5.17;;
6205;SDS011;3136;48.788;9.772;2023-03-21T07:46:27;8.03;;;5.53;;
6205;SDS011;3136;48.788;9.772;2023-03-21T07:48:53;7.00;;;6.00;;
6205;SDS011;3136;48.788;9.772;2023-03-21T07:51:18;7.63;;;6.00;;
6205;SDS011;3136;48.788;9.772;2023-03-21T07:53:44;7.33;;;5.87;;
6205;SDS011;3136;48.788;9.772;2023-03-21T07:56:12;9.13;;;5.47;;
6205;SDS011;3136;48.788;9.772;2023-03-21T07:58:38;7.00;;;5.73;;
6205;SDS011;3136;48.788;9.772;2023-03-21T08:01:04;9.63;;;5.80;;
6205;SDS011;3136;48.788;9.772;2023-03-21T08:03:30;8.17;;;5.73;;
6205;SDS011;3136;48.788;9.772;2023-03-21T08:05:58;6.97;;;5.60;;
6205;SDS011;3136;48.788;9.772;2023-03-21T08:08:25;6.23;;;5.10;;
6205;SDS011;3136;48.788;9.772;2023-03-21T08:10:51;6.00;;;4.60;;
6205;SDS011;3136;48.788;9.772;2023-03-21T08:13:16;5.87;;;4.73;;
6205;SDS011;3136;48.788;9.772;2023-03-21T08:15:42;7.70;;;4.80;;
6205;SDS011;3136;48.788;9.772;2023-03-21T08:18:08;5.07;;;4.57;;
6205;SDS011;3136;48.788;9.772;2023-03-21T08:20:34;4.77;;;4.27;;
6205;SDS011;3136;48.788;9.772;2023-03-21T08:23:00;4.70;;;4.17;;
6205;SDS011;3136;48.788;9.772;2023-03-21T08:25:26;6.00;;;4.27;;
6205;SDS011;3136;48.788;9.772;2023-03-21T08:27:51;6.23;;;3.87;;
6205;SDS011;3136;48.788;9.772;2023-03-21T08:30:18;4.93;;;4.43;;
6205;SDS011;3136;48.788;9.772;2023-03-21T08:32:46;6.80;;;4.10;;
6205;SDS011;3136;48.788;9.772;2023-03-21T08:35:13;6.97;;;4.27;;
6205;SDS011;3136;48.788;9.772;2023-03-21T08:37:40;6.23;;;4.13;;
6205;SDS011;3136;48.788;9.772;2023-03-21T08:40:08;5.43;;;3.77;;
6205;SDS011;3136;48.788;9.772;2023-03-21T08:42:37;4.70;;;4.10;;
6205;SDS011;3136;48.788;9.772;2023-03-21T08:45:03;5.43;;;3.80;;
6205;SDS011;3136;48.788;9.772;2023-03-21T08:47:31;5.80;;;4.10;;
6205;SDS011;3136;48.788;9.772;2023-03-21T08:49:57;5.17;;;3.90;;
6205;SDS011;3136;48.788;9.772;2023-03-21T08:52:23;5.80;;;3.83;;
6205;SDS011;3136;48.788;9.772;2023-03-21T08:54:49;4.67;;;3.80;;
6205;SDS011;3136;48.788;9.772;2023-03-21T08:57:15;4.30;;;3.63;;
6205;SDS011;3136;48.788;9.772;2023-03-21T08:59:40;4.93;;;3.43;;
6205;SDS011;3136;48.788;9.772;2023-03-21T09:02:06;6.23;;;3.07;;
6205;SDS011;3136;48.788;9.772;2023-03-21T09:04:33;5.00;;;3.10;;
6205;SDS011;3136;48.788;9.772;2023-03-21T09:06:59;3.50;;;2.40;;
6205;SDS011;3136;48.788;9.772;2023-03-21T09:09:29;2.93;;;2.30;;
6205;SDS011;3136;48.788;9.772;2023-03-21T09:11:54;2.93;;;2.33;;
6205;SDS011;3136;48.788;9.772;2023-03-21T09:14:20;3.17;;;2.30;;
6205;SDS011;3136;48.788;9.772;2023-03-21T09:16:46;3.53;;;2.60;;
6205;SDS011;3136;48.788;9.772;2023-03-21T09:19:11;3.77;;;2.40;;
6205;SDS011;3136;48.788;9.772;2023-03-21T09:21:37;3.60;;;2.70;;
6205;SDS011;3136;48.788;9.772;2023-03-21T09:24:03;3.33;;;2.27;;
6205;SDS011;3136;48.788;9.772;2023-03-21T09:26:29;3.50;;;2.20;;
6205;SDS011;3136;48.788;9.772;2023-03-21T09:28:55;4.33;;;2.00;;
6205;SDS011;3136;48.788;9.772;2023-03-21T09:31:22;2.87;;;2.33;;
6205;SDS011;3136;48.788;9.772;2023-03-21T09:33:49;4.37;;;2.27;;
6205;SDS011;3136;48.788;9.772;2023-03-21T09:36:16;3.50;;;2.20;;
6205;SDS011;3136;48.788;9.772;2023-03-21T09:38:45;2.57;;;2.20;;
6205;SDS011;3136;48.788;9.772;2023-03-21T09:43:54;3.20;;;2.13;;
6205;SDS011;3136;48.788;9.772;2023-03-21T09:46:26;4.03;;;2.17;;
6205;SDS011;3136;48.788;9.772;2023-03-21T09:49:31;2.20;;;1.83;;
6205;SDS011;3136;48.788;9.772;2023-03-21T09:52:03;3.57;;;2.20;;
6205;SDS011;3136;48.788;9.772;2023-03-21T09:54:37;3.30;;;2.07;;
6205;SDS011;3136;48.788;9.772;2023-03-21T09:57:49;3.27;;;2.20;;
6205;SDS011;3136;48.788;9.772;2023-03-21T09:59:59;2.17;;;1.70;;
6205;SDS011;3136;48.788;9.772;2023-03-21T10:02:49;3.10;;;2.13;;
6205;SDS011;3136;48.788;9.772;2023-03-21T10:07:51;2.57;;;1.80;;
6205;SDS011;3136;48.788;9.772;2023-03-21T10:10:29;3.17;;;2.10;;
6205;SDS011;3136;48.788;9.772;2023-03-21T10:12:58;2.93;;;2.00;;
6205;SDS011;3136;48.788;9.772;2023-03-21T10:15:25;3.97;;;2.10;;
6205;SDS011;3136;48.788;9.772;2023-03-21T10:18:09;2.93;;;2.10;;
6205;SDS011;3136;48.788;9.772;2023-03-21T10:20:40;1.90;;;1.70;;
6205;SDS011;3136;48.788;9.772;2023-03-21T10:23:07;2.60;;;1.80;;
6205;SDS011;3136;48.788;9.772;2023-03-21T10:25:39;2.17;;;1.70;;
6205;SDS011;3136;48.788;9.772;2023-03-21T10:28:08;3.83;;;2.10;;
6205;SDS011;3136;48.788;9.772;2023-03-21T10:30:43;2.83;;;1.80;;
6205;SDS011;3136;48.788;9.772;2023-03-21T10:33:25;2.60;;;1.70;;
6205;SDS011;3136;48.788;9.772;2023-03-21T10:35:57;3.27;;;1.80;;
6205;SDS011;3136;48.788;9.772;2023-03-21T10:38:26;3.20;;;1.70;;
6205;SDS011;3136;48.788;9.772;2023-03-21T10:40:52;1.93;;;1.77;;
6205;SDS011;3136;48.788;9.772;2023-03-21T10:43:19;2.40;;;1.80;;
6205;SDS011;3136;48.788;9.772;2023-03-21T10:46:03;2.47;;;1.73;;
6205;SDS011;3136;48.788;9.772;2023-03-21T10:48:33;2.57;;;1.70;;
6205;SDS011;3136;48.788;9.772;2023-03-21T10:51:01;3.47;;;1.97;;
6205;SDS011;3136;48.788;9.772;2023-03-21T10:53:31;3.13;;;1.90;;
6205;SDS011;3136;48.788;9.772;2023-03-21T10:56:00;2.80;;;1.97;;
6205;SDS011;3136;48.788;9.772;2023-03-21T10:58:30;2.20;;;1.77;;
6205;SDS011;3136;48.788;9.772;2023-03-21T11:01:04;4.53;;;1.83;;
6205;SDS011;3136;48.788;9.772;2023-03-21T11:03:36;3.03;;;1.67;;
6205;SDS011;3136;48.788;9.772;2023-03-21T11:06:10;2.30;;;1.80;;
6205;SDS011;3136;48.788;9.772;2023-03-21T11:08:48;2.77;;;1.67;;
6205;SDS011;3136;48.788;9.772;2023-03-21T11:11:18;4.57;;;1.93;;
6205;SDS011;3136;48.788;9.772;2023-03-21T11:13:54;4.13;;;1.90;;
6205;SDS011;3136;48.788;9.772;2023-03-21T11:16:23;2.17;;;1.60;;
6205;SDS011;3136;48.788;9.772;2023-03-21T11:18:55;4.40;;;1.90;;
6205;SDS011;3136;48.788;9.772;2023-03-21T11:21:25;2.50;;;1.80;;
6205;SDS011;3136;48.788;9.772;2023-03-21T11:23:52;2.13;;;1.70;;
6205;SDS011;3136;48.788;9.772;2023-03-21T11:26:21;3.93;;;1.80;;
6205;SDS011;3136;48.788;9.772;2023-03-21T11:28:54;2.73;;;1.90;;
6205;SDS011;3136;48.788;9.772;2023-03-21T11:31:20;3.13;;;2.10;;
6205;SDS011;3136;48.788;9.772;2023-03-21T11:38:59;4.13;;;1.90;;
6205;SDS011;3136;48.788;9.772;2023-03-21T11:41:38;2.37;;;2.00;;
6205;SDS011;3136;48.788;9.772;2023-03-21T11:44:05;2.83;;;1.87;;
6205;SDS011;3136;48.788;9.772;2023-03-21T11:46:31;1.87;;;1.60;;
6205;SDS011;3136;48.788;9.772;2023-03-21T11:49:03;2.43;;;1.80;;
6205;SDS011;3136;48.788;9.772;2023-03-21T11:57:21;2.13;;;1.60;;
6205;SDS011;3136;48.788;9.772;2023-03-21T12:00:10;3.03;;;1.50;;
6205;SDS011;3136;48.788;9.772;2023-03-21T12:25:41;2.73;;;1.60;;
6205;SDS011;3136;48.788;9.772;2023-03-21T12:31:30;1.47;;;1.30;;
6205;SDS011;3136;48.788;9.772;2023-03-21T12:36:59;1.30;;;1.20;;
6205;SDS011;3136;48.788;9.772;2023-03-21T12:39:47;2.77;;;1.20;;
6205;SDS011;3136;48.788;9.772;2023-03-21T12:42:30;2.57;;;1.40;;
6205;SDS011;3136;48.788;9.772;2023-03-21T12:45:19;4.30;;;1.47;;
6205;SDS011;3136;48.788;9.772;2023-03-21T12:47:54;1.17;;;1.07;;
6205;SDS011;3136;48.788;9.772;2023-03-21T12:50:28;1.60;;;1.20;;
6205;SDS011;3136;48.788;9.772;2023-03-21T12:53:04;2.37;;;1.30;;
6205;SDS011;3136;48.788;9.772;2023-03-21T12:55:43;1.30;;;1.20;;
6205;SDS011;3136;48.788;9.772;2023-03-21T12:58:14;2.63;;;1.23;;
6205;SDS011;3136;48.788;9.772;2023-03-21T13:00:56;1.57;;;1.10;;
6205;SDS011;3136;48.788;9.772;2023-03-21T13:03:35;1.33;;;1.10;;
6205;SDS011;3136;48.788;9.772;2023-03-21T13:06:14;2.20;;;1.30;;
6205;SDS011;3136;48.788;9.772;2023-03-21T13:08:46;2.63;;;1.07;;
6205;SDS011;3136;48.788;9.772;2023-03-21T13:11:17;1.53;;;1.00;;
6205;SDS011;3136;48.788;9.772;2023-03-21T13:13:57;1.63;;;1.03;;
6205;SDS011;3136;48.788;9.772;2023-03-21T13:16:38;1.63;;;1.00;;
6205;SDS011;3136;48.788;9.772;2023-03-21T13:19:27;1.03;;;0.93;;
6205;SDS011;3136;48.788;9.772;2023-03-21T13:24:57;2.20;;;1.23;;
6205;SDS011;3136;48.788;9.772;2023-03-21T13:27:30;1.37;;;1.00;;
6205;SDS011;3136;48.788;9.772;2023-03-21T13:29:58;2.90;;;1.20;;
6205;SDS011;3136;48.788;9.772;2023-03-21T13:37:37;2.83;;;1.30;;
6205;SDS011;3136;48.788;9.772;2023-03-21T13:40:06;3.23;;;1.20;;
6205;SDS011;3136;48.788;9.772;2023-03-21T13:42:47;3.03;;;1.13;;
6205;SDS011;3136;48.788;9.772;2023-03-21T13:51:01;5.80;;;1.40;;
6205;SDS011;3136;48.788;9.772;2023-03-21T13:56:08;1.43;;;1.07;;
6205;SDS011;3136;48.788;9.772;2023-03-21T14:03:58;1.20;;;0.90;;
6205;SDS011;3136;48.788;9.772;2023-03-21T14:06:41;1.50;;;1.03;;
6205;SDS011;3136;48.788;9.772;2023-03-21T14:09:08;1.23;;;1.10;;
6205;SDS011;3136;48.788;9.772;2023-03-21T14:11:39;0.90;;;0.80;;
6205;SDS011;3136;48.788;9.772;2023-03-21T14:14:06;1.57;;;0.90;;
6205;SDS011;3136;48.788;9.772;2023-03-21T14:16:32;1.37;;;1.00;;
6205;SDS011;3136;48.788;9.772;2023-03-21T14:19:00;1.43;;;1.00;;
6205;SDS011;3136;48.788;9.772;2023-03-21T14:21:29;1.13;;;1.03;;
6205;SDS011;3136;48.788;9.772;2023-03-21T14:26:26;1.10;;;1.00;;
6205;SDS011;3136;48.788;9.772;2023-03-21T14:28:58;1.50;;;0.90;;
6205;SDS011;3136;48.788;9.772;2023-03-21T14:31:27;1.43;;;1.00;;
6205;SDS011;3136;48.788;9.772;2023-03-21T14:33:54;1.77;;;1.10;;
6205;SDS011;3136;48.788;9.772;2023-03-21T14:36:24;2.27;;;1.07;;
6205;SDS011;3136;48.788;9.772;2023-03-21T14:41:23;3.33;;;1.10;;
6205;SDS011;3136;48.788;9.772;2023-03-21T14:43:59;1.30;;;1.20;;
6205;SDS011;3136;48.788;9.772;2023-03-21T14:46:49;1.50;;;1.20;;
6205;SDS011;3136;48.788;9.772;2023-03-21T14:51:56;1.27;;;0.83;;
6205;SDS011;3136;48.788;9.772;2023-03-21T14:54:25;1.10;;;1.00;;
6205;SDS011;3136;48.788;9.772;2023-03-21T14:56:52;1.13;;;1.03;;
6205;SDS011;3136;48.788;9.772;2023-03-21T14:59:24;2.07;;;1.07;;
6205;SDS011;3136;48.788;9.772;2023-03-21T15:01:53;3.80;;;1.07;;
6205;SDS011;3136;48.788;9.772;2023-03-21T15:04:19;2.70;;;1.20;;
6205;SDS011;3136;48.788;9.772;2023-03-21T15:06:58;3.07;;;1.93;;
6205;SDS011;3136;48.788;9.772;2023-03-21T15:09:29;1.43;;;1.20;;
6205;SDS011;3136;48.788;9.772;2023-03-21T15:11:57;1.67;;;1.30;;
6205;SDS011;3136;48.788;9.772;2023-03-21T15:14:30;1.33;;;1.00;;
6205;SDS011;3136;48.788;9.772;2023-03-21T15:16:58;0.80;;;0.80;;
6205;SDS011;3136;48.788;9.772;2023-03-21T15:19:29;1.20;;;1.10;;
6205;SDS011;3136;48.788;9.772;2023-03-21T15:24:57;1.47;;;1.10;;
6205;SDS011;3136;48.788;9.772;2023-03-21T15:27:26;1.60;;;1.00;;
6205;SDS011;3136;48.788;9.772;2023-03-21T15:29:56;2.57;;;0.97;;
6205;SDS011;3136;48.788;9.772;2023-03-21T15:32:23;1.73;;;1.20;;
6205;SDS011;3136;48.788;9.772;2023-03-21T15:34:50;2.67;;;1.10;;
6205;SDS011;3136;48.788;9.772;2023-03-21T15:37:21;3.13;;;1.03;;
6205;SDS011;3136;48.788;9.772;2023-03-21T15:39:52;1.30;;;1.10;;
6205;SDS011;3136;48.788;9.772;2023-03-21T15:42:33;1.93;;;1.10;;
6205;SDS011;3136;48.788;9.772;2023-03-21T15:45:07;1.47;;;1.00;;
6205;SDS011;3136;48.788;9.772;2023-03-21T15:50:23;3.53;;;1.20;;
6205;SDS011;3136;48.788;9.772;2023-03-21T15:52:55;1.20;;;0.90;;
6205;SDS011;3136;48.788;9.772;2023-03-21T15:55:27;1.37;;;1.10;;
6205;SDS011;3136;48.788;9.772;2023-03-21T15:58:17;3.07;;;1.23;;
6205;SDS011;3136;48.788;9.772;2023-03-21T16:00:54;2.03;;;1.10;;
6205;SDS011;3136;48.788;9.772;2023-03-21T16:03:25;2.00;;;1.00;;
6205;SDS011;3136;48.788;9.772;2023-03-21T16:06:16;1.70;;;1.00;;
6205;SDS011;3136;48.788;9.772;2023-03-21T16:13:41;1.33;;;1.00;;
6205;SDS011;3136;48.788;9.772;2023-03-21T16:16:09;2.57;;;1.20;;
6205;SDS011;3136;48.788;9.772;2023-03-21T16:18:43;1.90;;;1.07;;
6205;SDS011;3136;48.788;9.772;2023-03-21T16:21:10;1.30;;;1.03;;
6205;SDS011;3136;48.788;9.772;2023-03-21T16:23:38;1.33;;;1.20;;
6205;SDS011;3136;48.788;9.772;2023-03-21T16:26:04;1.17;;;1.00;;
6205;SDS011;3136;48.788;9.772;2023-03-21T16:28:30;2.93;;;1.30;;
6205;SDS011;3136;48.788;9.772;2023-03-21T16:30:55;1.93;;;1.20;;
6205;SDS011;3136;48.788;9.772;2023-03-21T16:33:21;3.47;;;1.50;;
6205;SDS011;3136;48.788;9.772;2023-03-21T16:35:49;4.27;;;1.10;;
6205;SDS011;3136;48.788;9.772;2023-03-21T16:38:15;1.33;;;0.97;;
6205;SDS011;3136;48.788;9.772;2023-03-21T16:40:41;1.53;;;1.10;;
6205;SDS011;3136;48.788;9.772;2023-03-21T16:43:08;2.20;;;1.10;;
6205;SDS011;3136;48.788;9.772;2023-03-21T16:45:35;5.97;;;1.37;;
6205;SDS011;3136;48.788;9.772;2023-03-21T16:48:01;4.60;;;1.57;;
6205;SDS011;3136;48.788;9.772;2023-03-21T16:50:34;5.00;;;1.67;;
6205;SDS011;3136;48.788;9.772;2023-03-21T16:53:03;5.37;;;1.47;;
6205;SDS011;3136;48.788;9.772;2023-03-21T16:55:29;3.07;;;1.20;;
6205;SDS011;3136;48.788;9.772;2023-03-21T16:57:57;3.50;;;1.10;;
6205;SDS011;3136;48.788;9.772;2023-03-21T17:00:23;6.33;;;1.93;;
6205;SDS011;3136;48.788;9.772;2023-03-21T17:02:51;3.70;;;1.47;;
6205;SDS011;3136;48.788;9.772;2023-03-21T17:05:19;1.60;;;1.10;;
6205;SDS011;3136;48.788;9.772;2023-03-21T17:07:50;6.70;;;1.53;;
6205;SDS011;3136;48.788;9.772;2023-03-21T17:10:21;4.23;;;1.30;;
6205;SDS011;3136;48.788;9.772;2023-03-21T17:12:49;3.50;;;2.57;;
6205;SDS011;3136;48.788;9.772;2023-03-21T17:15:14;3.67;;;2.30;;
6205;SDS011;3136;48.788;9.772;2023-03-21T17:17:41;5.10;;;2.00;;
6205;SDS011;3136;48.788;9.772;2023-03-21T17:20:49;3.27;;;1.40;;
6205;SDS011;3136;48.788;9.772;2023-03-21T17:22:58;4.77;;;1.40;;
6205;SDS011;3136;48.788;9.772;2023-03-21T17:25:24;3.70;;;1.50;;
6205;SDS011;3136;48.788;9.772;2023-03-21T17:27:51;4.03;;;2.37;;
6205;SDS011;3136;48.788;9.772;2023-03-21T17:30:35;6.03;;;3.20;;